Granger, Wyoming
Current Conditions -  °F | °C
As of 1:15 AM on Thursday 27 Nov 2014 (Local Time) from KFBR Reporting Station
Clear Clear  
Wind Chill: 30°   Ceiling: Unl
Heat Index: 38°   Visibility: 10mi
Dew Point: 22°   Wind: 15mph
Humidity: 52%   Direction: 260°W
Pressure: 30.37"   Gusts: 20mph
Location:  41.59°N, 109.97°W
Report Text: KFBR 270815Z AUTO 26013G17KT 10SM CLR 04/M05 A3037 RMK AO2 T00351055
Loading
Personal Weather Stations






























Interactive Weather Map New forecast layout! Learn more

10-Day Weather Forecast

Advertisements
Track Severe Weather on mobile